Aérodrome :
LOGIN :

S'inscrire | Disclaimer

   EN    FR    IT 

 










Légende :    VFR   VFR Marginal   IFR   IFR Intensif   IFR Très Intensif
Visi : 
Plafond : 
>= 8 km
>= 3000ft
5 à 8 km
1000 à 3000 ft
1500m à 5 km
500 à 1000 ft
800 à 1500m
200 à 500 ft
< 800m
< 200 ft
Symboles :   Orages  Brouillard  Fortes neiges  Fortes précipitations  Vent > 20 kt
SIGMETs :   Divers  Orages  Givrage  Turbulence  Onde Orograph.  Cendres Volcan.







- Altitude de l'aérodrome : 13 ft
- Code IATA : CEQ
- Voir les cartes d'approche


LFMD - Cannes Mandelieu

DERNIER METAR :
  • 172130Z AUTO 35005KT 310V040 9999 SCT060 BKN072 OVC084 19/16 Q1015

METARs EXPIRÉS :
  • 172100Z AUTO 01004KT 310V070 9999 -RADZ BKN056 OVC068 19/16 Q1015
  • 172030Z AUTO VRB01KT 9999 BKN044 OVC066 20/16 Q1015
  • 172000Z AUTO 11006KT 060V180 9999 FEW032 OVC045 20/16 Q1015 TEMPO 4000 RA
  • 171930Z AUTO 36004KT 310V070 9999 -RA BKN046 OVC056 19/16 Q1014 TEMPO 4000 RA
  • 171900Z AUTO 02003KT 350V050 9999 BKN048 OVC058 20/16 Q1014 TEMPO 4000 RA

TAF TAF LFMD
Valide du 17 à 15h jusqu'au 18 à 15h UTC


171400Z 1715/1815 07010KT 9999 BKN060
BECMG 1715/1717 VRB04KT
TEMPO 1718/1802 VRB10G20KT 4000 RA
BECMG 1808/1810 15010KT
ATIS : +33 4 93 48 73 23
Pas de NOTAMs connus pour ce terrain.



MET'MAP, la Météo Aéronautique d'un coup d'oeil ! - Copyright ORBIFLY Décembre 2007 - Disclaimer

ORBIFLY MET'MAP TEAM :

Programmation & Développement : Alexandra Zaïnal
Conception & Développement : Baudouin d'Aumeries
Co-Programmation & Développement : Marc-Olivier Méhu
Soutien technique & logistique : Manuel Goepfert

Contact : metmap@orbifly.com




SOURCES & CREDITS :

   NOAA